Time;durP1;ratioP1;P1;durP2;ratioP2;P2;SDS_P1;SDS_P2;PMS_P1;PMS_P2;Temp;Humidity;BMP_temperature;BMP_pressure;BME280_temperature;BME280_humidity;BME280_pressure;Samples;Min_cycle;Max_cycle;Signal;HPM_P1;HPM_P2
2022/09/01 04:01:32;;;;;;;22.00;20.20;;;15.90;99.90;;;;;;5489867;23;20489;-63
2022/09/01 04:04:00;;;;;;;23.23;21.43;;;15.90;99.90;;;;;;4977601;28;20463;-63
2022/09/01 04:06:29;;;;;;;22.10;20.47;;;15.90;99.90;;;;;;4977662;28;20854;-62
2022/09/01 04:09:01;;;;;;;23.00;21.20;;;15.90;99.90;;;;;;4977477;28;20457;-62
2022/09/01 04:11:29;;;;;;;25.53;23.20;;;15.90;99.90;;;;;;4977259;28;20478;-63
2022/09/01 04:13:56;;;;;;;25.17;23.07;;;15.90;99.90;;;;;;4977796;28;20458;-63
2022/09/01 04:19:19;;;;;;;24.10;21.90;;;15.80;99.90;;;;;;4977298;28;20777;-63
2022/09/01 04:21:49;;;;;;;24.43;22.50;;;15.70;99.90;;;;;;4976973;28;21039;-63
2022/09/01 04:24:17;;;;;;;23.97;21.90;;;15.70;99.90;;;;;;4977409;28;20454;-63
2022/09/01 04:26:45;;;;;;;25.33;23.07;;;15.70;99.90;;;;;;4977132;28;20442;-63
2022/09/01 04:29:13;;;;;;;25.17;23.20;;;15.60;99.90;;;;;;4977109;28;20458;-62
2022/09/01 04:31:41;;;;;;;25.17;23.17;;;15.60;99.90;;;;;;4976940;28;20477;-63
2022/09/01 04:34:12;;;;;;;25.93;23.73;;;15.60;99.90;;;;;;4977011;28;20458;-63
2022/09/01 04:36:42;;;;;;;25.20;22.97;;;15.60;99.90;;;;;;4976871;28;20501;-62
2022/09/01 04:39:11;;;;;;;23.77;21.80;;;15.50;99.90;;;;;;4977063;28;20534;-63
2022/09/01 04:41:40;;;;;;;25.00;22.73;;;15.50;99.90;;;;;;4976864;28;20611;-62
2022/09/01 04:44:07;;;;;;;23.73;21.83;;;15.50;99.90;;;;;;4976650;28;20462;-63
2022/09/01 04:46:38;;;;;;;25.40;23.00;;;15.50;99.90;;;;;;4976558;28;20458;-63
2022/09/01 04:49:09;;;;;;;26.47;24.20;;;15.60;99.90;;;;;;4976698;28;20899;-64
2022/09/01 04:51:38;;;;;;;25.60;23.53;;;15.60;99.90;;;;;;4976778;28;20838;-63
2022/09/01 04:54:11;;;;;;;27.50;25.10;;;15.60;99.90;;;;;;4976972;28;20478;-63
2022/09/01 04:56:38;;;;;;;29.30;26.70;;;15.60;99.90;;;;;;4976776;28;20474;-63
2022/09/01 04:59:06;;;;;;;29.03;26.63;;;15.50;99.90;;;;;;4977124;28;20454;-64
2022/09/01 05:01:41;;;;;;;27.33;24.73;;;15.60;99.90;;;;;;4976565;28;20494;-63
2022/09/01 05:04:09;;;;;;;28.07;25.73;;;15.60;99.90;;;;;;4976621;28;20901;-63
2022/09/01 05:06:38;;;;;;;27.60;25.03;;;15.60;99.90;;;;;;4976547;28;20454;-63
2022/09/01 05:09:08;;;;;;;27.10;24.90;;;15.60;99.90;;;;;;4976501;28;20478;-63
2022/09/01 05:11:36;;;;;;;28.17;25.23;;;15.60;99.90;;;;;;4976243;28;20478;-63
2022/09/01 05:14:04;;;;;;;28.80;26.40;;;15.50;99.90;;;;;;4976236;28;20462;-63
2022/09/01 05:16:31;;;;;;;27.43;25.03;;;15.60;99.90;;;;;;4976250;28;20489;-63
2022/09/01 05:19:00;;;;;;;29.33;26.90;;;15.50;99.90;;;;;;4976361;28;20804;-63
2022/09/01 05:21:28;;;;;;;29.30;26.80;;;15.50;99.90;;;;;;4976432;28;20489;-63
2022/09/01 05:23:57;;;;;;;27.80;25.40;;;15.50;99.90;;;;;;4976118;28;20458;-63
2022/09/01 05:26:26;;;;;;;31.63;28.87;;;15.60;99.90;;;;;;4976040;28;20477;-63
2022/09/01 05:28:55;;;;;;;31.10;28.20;;;15.50;99.90;;;;;;4975991;28;20462;-63
2022/09/01 05:31:22;;;;;;;30.23;27.63;;;15.60;99.90;;;;;;4975819;28;20478;-63
2022/09/01 05:33:50;;;;;;;31.27;28.30;;;15.50;99.90;;;;;;4975769;28;20481;-63
2022/09/01 05:36:19;;;;;;;31.87;29.07;;;15.50;99.90;;;;;;4975934;28;20466;-63
2022/09/01 05:38:46;;;;;;;29.87;27.27;;;15.60;99.90;;;;;;4975816;28;20451;-63
2022/09/01 05:41:16;;;;;;;31.50;28.70;;;15.70;99.90;;;;;;4976364;28;20478;-63
2022/09/01 05:43:48;;;;;;;28.67;26.27;;;15.80;99.90;;;;;;4975658;28;20826;-63
2022/09/01 05:46:17;;;;;;;29.03;26.57;;;15.90;99.90;;;;;;4975459;28;20441;-63
2022/09/01 05:48:45;;;;;;;29.83;27.27;;;16.10;99.90;;;;;;4975701;28;20489;-63
2022/09/01 05:51:15;;;;;;;26.83;24.43;;;16.10;99.90;;;;;;4975210;28;20989;-63
2022/09/01 05:53:42;;;;;;;30.30;27.33;;;16.30;99.90;;;;;;4975541;28;20451;-63
2022/09/01 05:56:12;;;;;;;28.40;25.90;;;16.40;99.90;;;;;;4974997;28;20475;-63
2022/09/01 05:58:40;;;;;;;27.10;24.70;;;16.50;99.90;;;;;;4977234;28;20916;-63
2022/09/01 06:01:08;;;;;;;25.60;23.40;;;16.70;99.90;;;;;;4976780;28;20491;-63
2022/09/01 06:03:35;;;;;;;25.20;23.20;;;16.90;99.90;;;;;;4976472;28;20549;-63
2022/09/01 06:06:07;;;;;;;24.97;22.87;;;17.20;99.90;;;;;;4975831;28;20969;-64
2022/09/01 06:08:35;;;;;;;24.60;22.40;;;17.50;99.90;;;;;;4975177;28;20898;-63
2022/09/01 06:11:02;;;;;;;22.40;20.50;;;17.90;99.90;;;;;;4975497;28;20504;-63
2022/09/01 06:13:29;;;;;;;22.80;20.90;;;18.40;99.90;;;;;;4974909;28;20867;-63
2022/09/01 06:15:57;;;;;;;23.90;21.80;;;18.60;99.90;;;;;;4975060;28;20479;-63
2022/09/01 06:18:26;;;;;;;23.43;21.23;;;18.70;99.90;;;;;;4975195;28;20509;-63
2022/09/01 06:20:53;;;;;;;26.20;24.00;;;18.80;99.90;;;;;;4975068;28;20481;-63
2022/09/01 06:23:20;;;;;;;24.87;22.50;;;18.80;99.90;;;;;;4975204;28;20509;-63
2022/09/01 06:25:47;;;;;;;23.87;21.73;;;18.70;99.90;;;;;;4974841;28;20462;-63
2022/09/01 06:28:15;;;;;;;24.60;22.40;;;18.70;99.90;;;;;;4975125;28;20459;-64
2022/09/01 06:30:43;;;;;;;22.87;20.87;;;18.80;99.90;;;;;;4975130;28;20471;-63
2022/09/01 06:33:12;;;;;;;23.83;21.63;;;19.00;99.90;;;;;;4975245;28;20457;-63
2022/09/01 06:35:42;;;;;;;22.43;20.43;;;19.20;99.90;;;;;;4975286;28;20565;-63
2022/09/01 06:38:10;;;;;;;20.43;18.73;;;19.50;99.90;;;;;;4974956;28;20442;-63
2022/09/01 06:40:41;;;;;;;19.77;18.07;;;20.10;99.90;;;;;;4979701;28;20478;-64
2022/09/01 06:43:11;;;;;;;18.40;16.90;;;20.60;99.90;;;;;;4979247;28;20530;-64
2022/09/01 06:45:41;;;;;;;19.50;17.47;;;21.10;99.90;;;;;;4979165;28;20454;-64
2022/09/01 06:48:08;;;;;;;17.77;16.27;;;21.70;99.90;;;;;;4978980;28;20442;-64
2022/09/01 06:50:36;;;;;;;19.13;17.50;;;22.50;99.90;;;;;;4978781;28;20479;-64
2022/09/01 06:53:07;;;;;;;17.27;15.77;;;22.70;99.90;;;;;;4978910;28;20525;-64
2022/09/01 06:55:36;;;;;;;17.00;15.60;;;23.10;99.90;;;;;;4978821;28;20447;-64
2022/09/01 06:58:04;;;;;;;16.07;14.67;;;23.50;99.90;;;;;;4978807;28;20529;-64
2022/09/01 07:00:31;;;;;;;15.20;14.00;;;24.20;99.90;;;;;;4978227;28;20455;-64
2022/09/01 07:02:58;;;;;;;15.73;14.53;;;24.50;99.90;;;;;;4978552;28;20443;-64
2022/09/01 07:05:25;;;;;;;15.20;14.10;;;24.80;99.90;;;;;;4978433;28;20501;-64
2022/09/01 07:07:54;;;;;;;15.27;14.07;;;25.00;99.90;;;;;;4978452;28;20458;-64
2022/09/01 07:10:24;;;;;;;14.57;13.43;;;25.00;99.90;;;;;;4978436;28;20462;-64
2022/09/01 07:12:52;;;;;;;15.23;14.13;;;25.20;99.90;;;;;;4978469;28;20505;-64
2022/09/01 07:15:19;;;;;;;12.87;11.83;;;25.20;99.90;;;;;;4978258;28;20530;-64
2022/09/01 07:17:51;;;;;;;12.40;11.50;;;25.10;99.90;;;;;;4978110;28;20474;-64
2022/09/01 07:20:20;;;;;;;12.47;11.57;;;25.20;99.90;;;;;;4978248;28;20450;-64
2022/09/01 07:22:46;;;;;;;13.07;12.07;;;24.90;99.90;;;;;;4978180;28;20531;-64
2022/09/01 07:25:13;;;;;;;14.00;13.00;;;24.70;99.90;;;;;;4978062;28;20461;-64
2022/09/01 07:27:47;;;;;;;12.43;11.50;;;24.50;99.90;;;;;;4977977;28;20460;-64
2022/09/01 07:30:14;;;;;;;13.27;12.17;;;24.40;99.90;;;;;;4977996;28;20450;-64
2022/09/01 07:32:43;;;;;;;12.37;11.37;;;24.20;99.90;;;;;;4977879;28;20459;-64
2022/09/01 07:35:11;;;;;;;11.30;10.50;;;24.10;99.90;;;;;;4977950;28;20505;-64
2022/09/01 07:37:37;;;;;;;11.97;11.00;;;24.10;99.90;;;;;;4978218;28;20478;-64
2022/09/01 07:40:06;;;;;;;10.87;10.10;;;24.10;99.90;;;;;;4977985;28;20454;-65
2022/09/01 07:42:33;;;;;;;10.17;9.47;;;24.00;99.90;;;;;;4978218;28;20490;-64
2022/09/01 07:45:07;;;;;;;10.33;9.40;;;23.80;99.90;;;;;;4978002;28;20454;-64
2022/09/01 07:47:35;;;;;;;9.63;8.87;;;23.50;99.90;;;;;;4977589;28;20804;-64
2022/09/01 07:50:05;;;;;;;9.70;8.77;;;23.70;99.90;;;;;;4978112;28;20486;-68
2022/09/01 07:52:33;;;;;;;9.40;8.70;;;24.00;99.90;;;;;;4977907;28;20478;-65
2022/09/01 07:55:00;;;;;;;9.20;7.90;;;24.80;99.90;;;;;;4977769;28;20455;-63
2022/09/01 07:57:27;;;;;;;9.10;8.17;;;25.60;99.90;;;;;;4977872;28;20533;-63
2022/09/01 07:59:54;;;;;;;8.33;7.73;;;26.20;99.90;;;;;;4977836;28;20459;-63
2022/09/01 08:02:23;;;;;;;7.90;7.30;;;27.00;99.90;;;;;;4977439;28;20541;-64
2022/09/01 08:04:50;;;;;;;8.60;8.00;;;27.90;99.10;;;;;;4977526;28;20455;-63
2022/09/01 08:07:16;;;;;;;7.70;7.10;;;28.10;97.00;;;;;;4976979;28;20458;-64
2022/09/01 08:09:43;;;;;;;9.77;8.97;;;28.20;94.30;;;;;;4978069;28;20214;-65
2022/09/01 08:12:10;;;;;;;9.77;9.03;;;28.00;94.20;;;;;;4977806;28;20478;-65
2022/09/01 08:14:37;;;;;;;10.10;9.40;;;27.80;94.60;;;;;;4978444;28;20450;-64
2022/09/01 08:17:05;;;;;;;10.07;9.37;;;27.70;94.80;;;;;;4977488;28;20841;-66
2022/09/01 08:19:33;;;;;;;12.10;11.20;;;27.50;94.80;;;;;;4978134;28;20793;-65
2022/09/01 08:22:01;;;;;;;11.30;10.50;;;27.20;95.40;;;;;;4977091;28;20478;-66
2022/09/01 08:24:27;;;;;;;10.70;10.00;;;26.90;96.20;;;;;;4977978;28;21006;-65
2022/09/01 08:26:54;;;;;;;11.80;10.70;;;26.50;97.00;;;;;;4976934;28;20450;-65
2022/09/01 08:29:21;;;;;;;12.13;11.20;;;26.00;96.70;;;;;;4977059;28;20455;-66
2022/09/01 08:31:48;;;;;;;12.73;11.83;;;25.50;98.10;;;;;;4976986;28;20481;-65
2022/09/01 08:34:15;;;;;;;12.43;11.53;;;24.90;99.50;;;;;;4976978;28;20446;-66
2022/09/01 08:36:44;;;;;;;12.90;11.80;;;24.50;99.90;;;;;;4976708;28;20504;-66
2022/09/01 08:39:10;;;;;;;13.70;10.50;;;24.00;99.90;;;;;;4976920;28;20450;-66
2022/09/01 08:41:43;;;;;;;11.83;10.93;;;23.60;99.90;;;;;;4976639;28;20532;-66
2022/09/01 08:44:21;;;;;;;11.37;10.57;;;23.20;99.90;;;;;;4976793;28;20462;-66
2022/09/01 08:46:55;;;;;;;9.90;9.10;;;23.10;99.90;;;;;;4977165;28;20446;-66
2022/09/01 08:49:24;;;;;;;10.27;9.47;;;23.00;99.90;;;;;;4976746;28;20906;-66
2022/09/01 08:51:57;;;;;;;11.27;10.40;;;23.00;99.90;;;;;;4976611;28;20482;-65
2022/09/01 08:54:29;;;;;;;10.57;9.67;;;22.90;99.90;;;;;;4976721;28;20450;-65
2022/09/01 08:57:00;;;;;;;11.10;10.30;;;22.70;99.90;;;;;;4976667;28;20463;-66
2022/09/01 08:59:27;;;;;;;9.47;8.77;;;22.60;99.90;;;;;;4976446;28;20447;-65
2022/09/01 09:02:02;;;;;;;9.83;9.07;;;22.50;99.90;;;;;;4975557;28;20486;-66
2022/09/01 09:04:49;;;;;;;9.30;8.60;;;22.40;99.90;;;;;;4976562;28;20447;-66
2022/09/01 09:07:25;;;;;;;9.53;8.90;;;22.30;99.90;;;;;;4976643;28;20435;-64
2022/09/01 09:09:58;;;;;;;10.93;10.00;;;22.20;99.90;;;;;;4976345;28;20446;-64
2022/09/01 09:12:50;;;;;;;10.00;9.30;;;22.10;99.90;;;;;;4976277;28;20479;-64
2022/09/01 09:15:24;;;;;;;10.67;9.87;;;22.00;99.90;;;;;;4976183;28;20446;-66
2022/09/01 09:17:58;;;;;;;10.33;9.33;;;21.90;99.90;;;;;;4975959;28;20513;-66
2022/09/01 09:20:25;;;;;;;9.57;8.77;;;22.00;99.90;;;;;;4975999;28;20443;-65
2022/09/01 09:22:54;;;;;;;9.13;8.50;;;22.20;99.90;;;;;;4975995;28;20509;-65
2022/09/01 09:25:23;;;;;;;9.10;8.50;;;22.50;99.90;;;;;;4975465;28;20946;-65
2022/09/01 09:27:51;;;;;;;9.57;8.90;;;22.60;99.90;;;;;;4975760;28;20538;-65
2022/09/01 09:30:21;;;;;;;8.50;7.90;;;22.60;99.90;;;;;;4975370;28;20461;-65
2022/09/01 09:32:51;;;;;;;8.50;7.90;;;22.60;99.90;;;;;;4975558;28;20546;-65
2022/09/01 09:35:25;;;;;;;8.10;7.50;;;22.60;99.90;;;;;;4975646;28;20577;-65
2022/09/01 09:37:54;;;;;;;8.00;7.50;;;22.60;99.90;;;;;;4975604;28;20470;-65
2022/09/01 09:40:23;;;;;;;7.73;7.23;;;22.50;99.90;;;;;;4975496;28;20454;-65
2022/09/01 09:43:06;;;;;;;7.50;7.03;;;22.40;99.90;;;;;;4975682;28;20458;-65
2022/09/01 09:45:36;;;;;;;8.23;7.53;;;22.20;99.90;;;;;;4975501;28;20510;-65
2022/09/01 09:48:07;;;;;;;8.27;7.57;;;22.10;99.90;;;;;;4975386;28;20458;-65
2022/09/01 09:50:38;;;;;;;7.20;6.70;;;22.10;99.90;;;;;;4975415;28;20483;-65
2022/09/01 09:53:16;;;;;;;6.80;6.40;;;22.10;99.90;;;;;;4976056;28;20447;-65
2022/09/01 09:55:56;;;;;;;8.17;7.47;;;22.00;99.90;;;;;;4975912;28;20447;-65
2022/09/01 09:58:26;;;;;;;7.30;6.80;;;22.10;99.90;;;;;;4975208;28;20780;-65
2022/09/01 10:01:06;;;;;;;7.10;6.60;;;22.20;99.90;;;;;;4975097;28;20524;-65
2022/09/01 10:03:41;;;;;;;6.50;6.10;;;22.40;99.90;;;;;;4975193;28;20781;-65
2022/09/01 10:06:14;;;;;;;6.10;5.60;;;22.70;99.90;;;;;;4975110;28;20533;-65
2022/09/01 10:08:46;;;;;;;5.87;5.40;;;23.10;99.90;;;;;;4974821;28;20783;-65
2022/09/01 10:11:28;;;;;;;5.43;4.90;;;23.70;99.90;;;;;;4975481;28;20494;-65
2022/09/01 10:13:55;;;;;;;4.70;4.40;;;24.30;99.90;;;;;;4974262;28;20449;-65
2022/09/01 10:16:27;;;;;;;5.53;5.23;;;24.60;99.90;;;;;;4974932;28;20819;-66
2022/09/01 10:18:59;;;;;;;5.40;5.10;;;24.70;99.90;;;;;;4975032;28;20498;-65
2022/09/01 10:21:32;;;;;;;5.07;4.70;;;24.60;99.90;;;;;;4974915;28;20489;-65
2022/09/01 10:24:04;;;;;;;5.30;5.00;;;24.50;99.90;;;;;;4974997;28;20473;-66
2022/09/01 10:26:35;;;;;;;5.20;4.90;;;24.90;99.90;;;;;;4975007;28;20454;-66
2022/09/01 10:29:07;;;;;;;4.80;4.40;;;25.40;99.90;;;;;;4974617;28;20813;-66
2022/09/01 10:31:36;;;;;;;4.30;4.10;;;25.80;98.00;;;;;;4975020;28;20478;-65
2022/09/01 10:34:05;;;;;;;6.10;4.33;;;26.00;97.40;;;;;;4974912;28;20817;-65
2022/09/01 10:36:35;;;;;;;4.40;4.10;;;26.10;97.40;;;;;;4974693;28;20884;-65
2022/09/01 10:39:04;;;;;;;4.50;4.20;;;26.30;96.50;;;;;;4974783;28;20486;-65
2022/09/01 10:41:53;;;;;;;5.23;4.90;;;26.50;94.80;;;;;;4974355;28;20989;-65
2022/09/01 10:44:22;;;;;;;5.13;4.83;;;26.40;95.00;;;;;;4974440;28;20441;-65
2022/09/01 10:46:51;;;;;;;4.83;4.53;;;26.20;94.70;;;;;;4974649;28;20459;-65
2022/09/01 10:49:50;;;;;;;5.03;4.73;;;25.90;95.40;;;;;;4974664;28;20830;-65
2022/09/01 10:52:54;;;;;;;5.60;5.20;;;25.30;96.30;;;;;;4974428;28;20835;-65
2022/09/01 10:55:26;;;;;;;6.83;5.33;;;25.00;96.70;;;;;;4974727;28;20450;-65
2022/09/01 10:58:28;;;;;;;5.00;4.60;;;24.70;97.80;;;;;;4974604;28;20466;-65
2022/09/01 11:00:57;;;;;;;5.03;4.73;;;24.60;98.80;;;;;;4974681;28;20880;-67
2022/09/01 11:03:55;;;;;;;4.50;4.20;;;24.60;99.00;;;;;;4974512;28;20454;-66
2022/09/01 11:06:52;;;;;;;5.00;4.60;;;24.80;99.50;;;;;;4974638;28;20438;-66
2022/09/01 11:09:23;;;;;;;5.17;4.87;;;25.00;98.60;;;;;;4974688;28;20802;-66
2022/09/01 11:12:16;;;;;;;5.73;4.73;;;25.30;99.40;;;;;;4974462;28;20475;-66
2022/09/01 11:14:49;;;;;;;3.80;3.50;;;25.80;98.30;;;;;;4954396;28;20465;-66
2022/09/01 11:17:19;;;;;;;5.37;5.03;;;26.10;96.30;;;;;;4974867;28;20843;-66
2022/09/01 11:19:55;;;;;;;5.90;5.50;;;26.00;95.50;;;;;;4974335;28;20458;-66
2022/09/01 11:22:26;;;;;;;5.30;4.90;;;25.70;95.40;;;;;;4974437;28;20505;-66
2022/09/01 11:25:35;;;;;;;5.23;4.93;;;25.40;96.00;;;;;;4974880;28;20446;-66
2022/09/01 11:28:08;;;;;;;4.50;4.30;;;25.10;96.50;;;;;;4978077;28;20446;-66
2022/09/01 11:30:50;;;;;;;4.97;4.73;;;24.80;97.00;;;;;;4978011;28;20478;-65
2022/09/01 11:33:34;;;;;;;5.27;4.97;;;24.50;97.40;;;;;;4978595;28;20443;-65
2022/09/01 11:36:03;;;;;;;5.40;5.10;;;24.30;97.80;;;;;;4977925;28;20446;-65
2022/09/01 11:38:36;;;;;;;5.17;4.87;;;24.30;99.00;;;;;;4977761;28;20488;-65
2022/09/01 11:41:03;;;;;;;4.90;4.60;;;24.40;98.90;;;;;;4977808;28;20479;-65
2022/09/01 11:43:31;;;;;;;4.83;4.60;;;24.40;99.20;;;;;;4977793;28;20458;-66
2022/09/01 11:46:08;;;;;;;5.50;5.20;;;24.50;99.00;;;;;;4977652;28;20454;-65
2022/09/01 11:48:36;;;;;;;5.37;5.07;;;24.60;98.40;;;;;;4977816;28;20445;-65
2022/09/01 11:51:04;;;;;;;5.47;5.17;;;24.60;97.70;;;;;;4977573;28;20486;-65
2022/09/01 11:53:31;;;;;;;5.10;4.70;;;24.70;97.60;;;;;;4977727;28;20459;-65
2022/09/01 11:56:15;;;;;;;5.07;4.77;;;24.60;97.60;;;;;;4977297;28;20459;-65
2022/09/01 11:58:44;;;;;;;5.47;5.13;;;24.40;97.80;;;;;;4977537;28;20466;-66
2022/09/01 12:01:17;;;;;;;5.00;4.70;;;24.30;98.30;;;;;;4977183;28;20896;-65
2022/09/01 12:03:45;;;;;;;4.60;4.30;;;24.20;99.10;;;;;;4978220;28;20533;-65
2022/09/01 12:06:20;;;;;;;12.50;4.70;;;24.50;99.60;;;;;;4977226;28;20790;-65
2022/09/01 12:08:54;;;;;;;3.97;3.77;;;24.80;96.90;;;;;;4977362;28;20446;-66
2022/09/01 12:11:26;;;;;;;3.87;3.67;;;25.20;97.60;;;;;;4977048;28;20981;-65
2022/09/01 12:14:00;;;;;;;4.50;4.30;;;25.50;95.30;;;;;;4977251;28;20439;-65
2022/09/01 12:16:28;;;;;;;4.03;3.83;;;25.60;94.80;;;;;;4977223;28;20443;-65
2022/09/01 12:18:57;;;;;;;4.40;4.20;;;25.90;95.40;;;;;;4977070;28;20521;-65
2022/09/01 12:21:27;;;;;;;4.00;3.80;;;25.70;93.90;;;;;;4977083;28;20477;-65
2022/09/01 12:24:09;;;;;;;4.43;4.13;;;25.80;94.80;;;;;;4978149;28;20447;-66
2022/09/01 12:26:36;;;;;;;5.10;4.70;;;25.80;95.00;;;;;;4977248;28;20446;-65
2022/09/01 12:29:05;;;;;;;5.00;4.70;;;25.60;94.40;;;;;;4977185;28;20450;-65
2022/09/01 12:31:32;;;;;;;5.27;4.97;;;25.40;94.60;;;;;;4976793;28;21001;-66
2022/09/01 12:34:01;;;;;;;5.07;4.80;;;25.30;94.70;;;;;;4977121;28;20459;-66
2022/09/01 12:36:30;;;;;;;4.87;4.57;;;25.30;94.20;;;;;;4975963;28;20942;-66
2022/09/01 12:39:18;;;;;;;4.27;4.07;;;25.20;94.20;;;;;;4976933;28;20577;-67
2022/09/01 12:41:47;;;;;;;4.30;4.00;;;25.30;93.80;;;;;;4976691;28;20475;-66
2022/09/01 12:44:29;;;;;;;3.70;3.57;;;25.40;93.40;;;;;;4976807;28;20461;-67
2022/09/01 12:46:57;;;;;;;4.43;4.23;;;25.90;92.80;;;;;;4977032;28;20443;-66
2022/09/01 12:49:26;;;;;;;4.00;3.80;;;26.10;91.90;;;;;;4977403;28;20454;-67
2022/09/01 12:52:26;;;;;;;4.57;4.17;;;26.50;92.10;;;;;;4976906;28;20482;-66
2022/09/01 12:55:07;;;;;;;4.63;4.33;;;26.70;91.40;;;;;;4973238;28;20517;-66
2022/09/01 12:57:36;;;;;;;4.60;4.40;;;27.10;92.30;;;;;;4976509;28;20467;-66
2022/09/01 13:00:20;;;;;;;5.10;4.80;;;27.50;91.50;;;;;;4976644;28;20459;-66
2022/09/01 13:02:49;;;;;;;6.23;5.60;;;27.50;91.90;;;;;;4976792;28;20438;-66
2022/09/01 13:05:29;;;;;;;5.23;4.93;;;27.50;91.60;;;;;;4976457;28;20467;-66
2022/09/01 13:07:57;;;;;;;5.30;5.00;;;27.60;91.20;;;;;;4976520;28;20431;-65
2022/09/01 13:10:26;;;;;;;5.30;5.00;;;27.30;90.50;;;;;;4976616;28;20454;-66
2022/09/01 13:12:54;;;;;;;4.83;4.63;;;27.00;91.40;;;;;;4976622;28;20462;-66
2022/09/01 13:15:23;;;;;;;5.63;5.33;;;26.70;91.00;;;;;;4976331;28;20461;-66
2022/09/01 13:17:50;;;;;;;6.17;5.67;;;26.30;91.50;;;;;;4975878;28;20517;-66
2022/09/01 13:20:18;;;;;;;6.47;5.97;;;26.10;92.40;;;;;;4976511;28;20785;-66
2022/09/01 13:22:44;;;;;;;6.07;5.70;;;25.80;92.60;;;;;;4976064;28;20972;-66
2022/09/01 13:25:12;;;;;;;5.80;5.50;;;25.70;92.70;;;;;;4976354;28;20466;-67
2022/09/01 13:27:41;;;;;;;5.33;5.03;;;25.50;92.70;;;;;;4975831;28;20810;-66
2022/09/01 13:30:09;;;;;;;5.37;4.97;;;25.20;92.70;;;;;;4975976;28;20454;-66
2022/09/01 13:32:37;;;;;;;5.90;5.50;;;25.10;93.50;;;;;;4975699;28;20977;-66
2022/09/01 13:35:04;;;;;;;5.60;5.20;;;25.10;93.60;;;;;;4975583;28;20455;-65
2022/09/01 13:37:31;;;;;;;5.00;4.70;;;25.40;93.10;;;;;;4976342;28;20459;-65
2022/09/01 13:39:58;;;;;;;4.53;4.30;;;25.60;92.20;;;;;;4977725;28;20800;-65
2022/09/01 13:42:25;;;;;;;4.37;4.17;;;25.90;91.80;;;;;;4977183;28;20553;-65
2022/09/01 13:44:51;;;;;;;4.37;4.17;;;26.10;91.10;;;;;;4975626;28;20459;-66
2022/09/01 13:47:18;;;;;;;4.93;4.67;;;26.20;91.00;;;;;;4975558;28;20462;-66
2022/09/01 13:49:46;;;;;;;4.67;4.37;;;26.40;91.40;;;;;;4975512;28;20462;-66
2022/09/01 13:52:13;;;;;;;3.70;3.60;;;26.30;90.30;;;;;;4975526;28;20485;-66
2022/09/01 13:54:43;;;;;;;4.40;4.10;;;26.50;88.60;;;;;;4975157;28;20819;-65
2022/09/01 13:57:10;;;;;;;4.37;4.17;;;26.70;88.30;;;;;;4975989;28;20459;-65
2022/09/01 13:59:37;;;;;;;3.83;3.53;;;26.90;86.90;;;;;;4975247;28;20485;-65
2022/09/01 14:02:04;;;;;;;4.13;3.93;;;27.00;87.60;;;;;;4974862;28;20525;-65
2022/09/01 14:04:31;;;;;;;4.10;3.90;;;27.20;87.40;;;;;;4975231;28;20455;-65
2022/09/01 14:06:59;;;;;;;3.83;3.63;;;27.40;84.90;;;;;;4975353;28;20467;-65
2022/09/01 14:09:26;;;;;;;4.37;4.17;;;27.50;85.20;;;;;;4975313;28;20450;-66
2022/09/01 14:11:53;;;;;;;4.00;3.70;;;27.40;83.10;;;;;;4975081;28;20479;-65
2022/09/01 14:14:20;;;;;;;3.97;3.60;;;27.40;82.10;;;;;;4975172;28;20465;-65
2022/09/01 14:16:48;;;;;;;3.50;3.33;;;27.10;82.20;;;;;;4974989;28;20509;-65
2022/09/01 14:19:15;;;;;;;4.20;3.90;;;27.00;83.90;;;;;;4975974;28;20860;-65
2022/09/01 14:21:42;;;;;;;4.03;3.70;;;27.00;82.20;;;;;;4975096;28;21005;-65
2022/09/01 14:24:10;;;;;;;4.00;3.70;;;26.90;83.00;;;;;;4975017;28;20465;-65
2022/09/01 14:26:37;;;;;;;3.93;3.73;;;26.90;84.00;;;;;;4974923;28;20462;-65
2022/09/01 14:29:04;;;;;;;3.50;3.30;;;27.00;83.80;;;;;;4974763;28;20980;-65
2022/09/01 14:31:30;;;;;;;4.40;4.20;;;27.00;83.20;;;;;;4975073;28;20478;-65
2022/09/01 14:33:57;;;;;;;4.53;4.20;;;26.70;82.60;;;;;;4974591;28;20459;-65
2022/09/01 14:36:26;;;;;;;4.03;3.83;;;26.50;83.80;;;;;;4974991;28;20454;-65
2022/09/01 14:38:53;;;;;;;3.93;3.73;;;26.50;83.60;;;;;;4974688;28;20506;-65
2022/09/01 14:41:24;;;;;;;3.77;3.57;;;26.30;84.20;;;;;;4974933;28;20478;-65
2022/09/01 14:43:51;;;;;;;4.30;4.00;;;26.30;85.90;;;;;;4974805;28;20443;-65
2022/09/01 14:46:19;;;;;;;4.30;3.93;;;26.30;86.90;;;;;;4974742;28;20525;-65
2022/09/01 14:48:47;;;;;;;4.33;3.93;;;26.30;87.40;;;;;;4974853;28;20477;-65
2022/09/01 14:51:21;;;;;;;4.40;4.10;;;26.20;86.90;;;;;;4974278;28;20842;-65
2022/09/01 14:53:48;;;;;;;4.27;3.97;;;26.10;86.40;;;;;;4974698;28;20443;-65
2022/09/01 14:56:17;;;;;;;4.50;4.10;;;26.20;87.00;;;;;;4974780;28;20481;-65
2022/09/01 14:58:46;;;;;;;8.20;5.20;;;26.00;86.20;;;;;;4974572;28;20478;-66
2022/09/01 15:01:13;;;;;;;4.53;4.27;;;25.90;87.90;;;;;;4977015;28;20489;-66
2022/09/01 15:03:41;;;;;;;4.20;3.90;;;25.80;87.80;;;;;;4978521;28;20486;-66
2022/09/01 15:06:08;;;;;;;3.70;3.50;;;25.80;89.50;;;;;;4978152;28;20962;-66
2022/09/01 15:08:35;;;;;;;4.17;3.73;;;25.90;87.50;;;;;;4978444;28;20474;-66
2022/09/01 15:11:02;;;;;;;4.03;3.70;;;25.90;87.90;;;;;;4978348;28;20475;-66
2022/09/01 15:13:28;;;;;;;3.90;3.70;;;26.00;85.70;;;;;;4978427;28;20460;-66
2022/09/01 15:15:56;;;;;;;3.83;3.63;;;26.10;85.90;;;;;;4978374;28;20457;-66
2022/09/01 15:18:23;;;;;;;3.80;3.60;;;26.10;85.10;;;;;;4978235;28;20525;-66
2022/09/01 15:20:50;;;;;;;3.93;3.73;;;26.00;85.40;;;;;;4977974;28;20481;-65
2022/09/01 15:23:19;;;;;;;3.83;3.50;;;25.80;84.60;;;;;;4978333;28;20457;-66
2022/09/01 15:25:47;;;;;;;3.90;3.63;;;25.70;86.10;;;;;;4978149;28;20549;-65
2022/09/01 15:28:14;;;;;;;3.70;3.40;;;25.60;85.80;;;;;;4978264;28;20476;-66
2022/09/01 15:30:42;;;;;;;4.47;4.10;;;25.70;86.90;;;;;;4978162;28;20482;-66
2022/09/01 15:33:11;;;;;;;3.73;3.53;;;25.80;86.90;;;;;;4978029;28;20454;-65
2022/09/01 15:35:38;;;;;;;4.37;3.60;;;25.80;85.50;;;;;;4977705;28;20941;-66
2022/09/01 15:38:06;;;;;;;3.90;3.57;;;25.90;84.80;;;;;;4978416;28;20967;-67
2022/09/01 15:40:34;;;;;;;3.53;3.23;;;25.90;85.10;;;;;;4978483;28;20490;-68
2022/09/01 15:43:00;;;;;;;3.73;3.40;;;25.80;84.30;;;;;;4978229;28;20466;-66
2022/09/01 15:45:28;;;;;;;3.50;3.30;;;25.70;83.10;;;;;;4977937;28;20822;-66
2022/09/01 15:47:55;;;;;;;3.67;3.57;;;25.70;84.30;;;;;;4977691;28;20454;-65
2022/09/01 15:50:25;;;;;;;3.57;3.37;;;25.60;85.40;;;;;;4977607;28;20451;-65
2022/09/01 15:52:54;;;;;;;4.10;3.80;;;25.60;85.10;;;;;;4977836;28;20466;-65
2022/09/01 15:55:23;;;;;;;3.63;3.43;;;25.60;85.40;;;;;;4977833;28;20542;-66
2022/09/01 15:57:51;;;;;;;3.30;3.20;;;25.60;85.80;;;;;;4977600;28;20583;-65
2022/09/01 16:00:18;;;;;;;7.23;3.20;;;25.60;85.40;;;;;;4977519;28;21039;-65
2022/09/01 16:02:45;;;;;;;9.30;3.20;;;25.50;83.20;;;;;;4977940;28;20438;-65
2022/09/01 16:05:13;;;;;;;3.27;3.17;;;25.40;82.20;;;;;;4977741;28;20505;-65
2022/09/01 16:07:41;;;;;;;3.50;3.30;;;25.30;81.10;;;;;;4977834;28;20454;-65
2022/09/01 16:10:11;;;;;;;5.43;3.43;;;25.20;82.10;;;;;;4978369;28;20455;-65
2022/09/01 16:12:42;;;;;;;3.20;3.00;;;25.10;82.50;;;;;;4977078;28;20480;-65
2022/09/01 16:15:11;;;;;;;4.27;3.87;;;25.00;83.10;;;;;;4978440;28;20907;-65
2022/09/01 16:17:49;;;;;;;3.87;3.67;;;24.90;83.90;;;;;;4979254;28;20446;-65
2022/09/01 16:20:20;;;;;;;3.80;3.50;;;24.70;84.90;;;;;;4978911;28;20471;-65
2022/09/01 16:22:55;;;;;;;3.77;3.57;;;24.60;85.30;;;;;;4979194;28;21127;-66
2022/09/01 16:25:28;;;;;;;3.80;3.50;;;24.60;86.20;;;;;;4979668;28;20434;-65
2022/09/01 16:27:56;;;;;;;3.57;3.40;;;24.60;87.40;;;;;;4978162;28;20443;-65
2022/09/01 16:30:27;;;;;;;4.43;4.13;;;24.60;87.60;;;;;;4979374;28;20446;-65
2022/09/01 16:32:54;;;;;;;4.00;3.73;;;24.60;87.80;;;;;;4978417;28;20494;-65
2022/09/01 16:35:24;;;;;;;4.60;3.77;;;24.60;87.70;;;;;;4978219;28;20458;-65
2022/09/01 16:37:59;;;;;;;4.03;3.77;;;24.70;87.90;;;;;;4978556;28;20943;-65
2022/09/01 16:40:34;;;;;;;3.60;3.50;;;24.80;87.70;;;;;;4978620;28;20865;-66
2022/09/01 16:43:06;;;;;;;4.70;4.40;;;24.80;87.40;;;;;;4978627;28;20497;-66
2022/09/01 16:45:43;;;;;;;5.30;4.90;;;24.80;88.00;;;;;;4978111;28;20442;-65
2022/09/01 16:48:17;;;;;;;5.30;5.00;;;24.80;88.70;;;;;;4977204;28;20509;-66
2022/09/01 16:50:48;;;;;;;5.40;4.90;;;24.70;88.40;;;;;;4977112;28;20470;-65
2022/09/01 16:53:28;;;;;;;5.60;5.10;;;24.70;88.10;;;;;;4976946;28;20440;-65
2022/09/01 16:56:02;;;;;;;4.97;4.77;;;24.50;87.60;;;;;;4977631;28;20439;-66
2022/09/01 16:58:40;;;;;;;5.67;5.20;;;24.50;87.80;;;;;;4976520;28;20443;-66
2022/09/01 17:01:19;;;;;;;5.13;4.83;;;24.30;87.10;;;;;;4976172;28;20482;-66